sensor_id;sensor_type;location;lat;lon;timestamp;P1;durP1;ratioP1;P2;durP2;ratioP2
22070;SDS011;11200;51.488;6.668;2023-04-03T03:50:02;3.92;;;2.05;;
22070;SDS011;11200;51.488;6.668;2023-04-03T03:52:28;3.63;;;2.13;;
22070;SDS011;11200;51.488;6.668;2023-04-03T03:54:55;4.10;;;1.98;;
22070;SDS011;11200;51.488;6.668;2023-04-03T03:57:22;4.65;;;2.20;;
22070;SDS011;11200;51.488;6.668;2023-04-03T03:59:48;3.97;;;2.35;;
22070;SDS011;11200;51.488;6.668;2023-04-03T04:02:13;2.53;;;1.70;;
22070;SDS011;11200;51.488;6.668;2023-04-03T04:04:39;3.88;;;2.00;;
22070;SDS011;11200;51.488;6.668;2023-04-03T04:07:05;4.57;;;2.40;;
22070;SDS011;11200;51.488;6.668;2023-04-03T04:09:31;2.50;;;1.83;;
22070;SDS011;11200;51.488;6.668;2023-04-03T04:11:57;3.35;;;2.08;;
22070;SDS011;11200;51.488;6.668;2023-04-03T04:14:23;4.68;;;1.95;;
22070;SDS011;11200;51.488;6.668;2023-04-03T04:16:48;3.15;;;2.00;;
22070;SDS011;11200;51.488;6.668;2023-04-03T04:19:14;3.08;;;1.98;;
22070;SDS011;11200;51.488;6.668;2023-04-03T04:21:40;2.65;;;1.90;;
22070;SDS011;11200;51.488;6.668;2023-04-03T04:24:06;6.72;;;2.00;;
22070;SDS011;11200;51.488;6.668;2023-04-03T04:26:32;3.08;;;2.00;;
22070;SDS011;11200;51.488;6.668;2023-04-03T04:28:58;2.92;;;2.00;;
22070;SDS011;11200;51.488;6.668;2023-04-03T04:31:24;5.38;;;1.92;;
22070;SDS011;11200;51.488;6.668;2023-04-03T04:33:49;3.28;;;1.83;;
22070;SDS011;11200;51.488;6.668;2023-04-03T04:36:15;2.63;;;1.90;;
22070;SDS011;11200;51.488;6.668;2023-04-03T04:38:41;3.08;;;1.90;;
22070;SDS011;11200;51.488;6.668;2023-04-03T04:41:07;3.58;;;1.95;;
22070;SDS011;11200;51.488;6.668;2023-04-03T04:43:33;3.42;;;1.90;;
22070;SDS011;11200;51.488;6.668;2023-04-03T04:48:31;3.53;;;1.92;;
22070;SDS011;11200;51.488;6.668;2023-04-03T04:50:57;4.45;;;2.00;;
22070;SDS011;11200;51.488;6.668;2023-04-03T04:53:22;3.47;;;2.00;;
22070;SDS011;11200;51.488;6.668;2023-04-03T04:55:48;2.88;;;1.67;;
22070;SDS011;11200;51.488;6.668;2023-04-03T04:58:14;3.58;;;1.90;;
22070;SDS011;11200;51.488;6.668;2023-04-03T05:00:40;2.28;;;1.80;;
22070;SDS011;11200;51.488;6.668;2023-04-03T05:03:05;3.40;;;1.90;;
22070;SDS011;11200;51.488;6.668;2023-04-03T05:05:31;3.00;;;2.05;;
22070;SDS011;11200;51.488;6.668;2023-04-03T05:07:57;5.60;;;2.10;;
22070;SDS011;11200;51.488;6.668;2023-04-03T05:10:23;4.50;;;2.25;;
22070;SDS011;11200;51.488;6.668;2023-04-03T05:12:48;4.32;;;2.28;;
22070;SDS011;11200;51.488;6.668;2023-04-03T05:15:14;6.10;;;2.95;;
22070;SDS011;11200;51.488;6.668;2023-04-03T05:17:40;4.45;;;2.55;;
22070;SDS011;11200;51.488;6.668;2023-04-03T05:20:05;4.45;;;2.80;;
22070;SDS011;11200;51.488;6.668;2023-04-03T05:22:33;5.38;;;2.88;;
22070;SDS011;11200;51.488;6.668;2023-04-03T05:24:59;4.68;;;3.10;;
22070;SDS011;11200;51.488;6.668;2023-04-03T05:27:25;6.05;;;2.63;;
22070;SDS011;11200;51.488;6.668;2023-04-03T05:29:53;5.68;;;2.65;;
22070;SDS011;11200;51.488;6.668;2023-04-03T05:32:19;5.40;;;2.55;;
22070;SDS011;11200;51.488;6.668;2023-04-03T05:34:45;3.45;;;2.20;;
22070;SDS011;11200;51.488;6.668;2023-04-03T05:37:11;4.40;;;2.60;;
22070;SDS011;11200;51.488;6.668;2023-04-03T05:39:37;4.30;;;2.53;;
22070;SDS011;11200;51.488;6.668;2023-04-03T05:42:05;3.53;;;2.40;;
22070;SDS011;11200;51.488;6.668;2023-04-03T05:44:31;4.20;;;2.50;;
22070;SDS011;11200;51.488;6.668;2023-04-03T05:46:57;4.47;;;2.58;;
22070;SDS011;11200;51.488;6.668;2023-04-03T05:49:22;3.55;;;2.47;;
22070;SDS011;11200;51.488;6.668;2023-04-03T05:51:48;5.90;;;2.70;;
22070;SDS011;11200;51.488;6.668;2023-04-03T05:56:48;3.88;;;2.40;;
22070;SDS011;11200;51.488;6.668;2023-04-03T05:59:15;5.68;;;2.40;;
22070;SDS011;11200;51.488;6.668;2023-04-03T06:01:43;5.38;;;2.53;;
22070;SDS011;11200;51.488;6.668;2023-04-03T06:04:09;7.38;;;2.60;;
22070;SDS011;11200;51.488;6.668;2023-04-03T06:06:51;4.45;;;2.55;;
22070;SDS011;11200;51.488;6.668;2023-04-03T06:09:23;4.57;;;2.67;;
22070;SDS011;11200;51.488;6.668;2023-04-03T06:11:51;4.10;;;2.22;;
22070;SDS011;11200;51.488;6.668;2023-04-03T06:14:17;4.60;;;2.50;;
22070;SDS011;11200;51.488;6.668;2023-04-03T06:16:43;6.20;;;2.60;;
22070;SDS011;11200;51.488;6.668;2023-04-03T06:19:10;4.80;;;2.47;;
22070;SDS011;11200;51.488;6.668;2023-04-03T06:21:37;5.85;;;2.72;;
22070;SDS011;11200;51.488;6.668;2023-04-03T06:24:03;4.45;;;2.25;;
22070;SDS011;11200;51.488;6.668;2023-04-03T06:26:30;5.80;;;2.78;;
22070;SDS011;11200;51.488;6.668;2023-04-03T06:28:56;4.68;;;2.50;;
22070;SDS011;11200;51.488;6.668;2023-04-03T06:31:22;4.60;;;2.67;;
22070;SDS011;11200;51.488;6.668;2023-04-03T06:33:48;5.90;;;2.60;;
22070;SDS011;11200;51.488;6.668;2023-04-03T06:36:13;5.38;;;2.28;;
22070;SDS011;11200;51.488;6.668;2023-04-03T06:38:44;6.00;;;2.60;;
22070;SDS011;11200;51.488;6.668;2023-04-03T06:41:11;3.30;;;2.30;;
22070;SDS011;11200;51.488;6.668;2023-04-03T06:43:37;4.30;;;2.40;;
22070;SDS011;11200;51.488;6.668;2023-04-03T06:46:03;4.97;;;2.80;;
22070;SDS011;11200;51.488;6.668;2023-04-03T06:48:29;6.60;;;2.75;;
22070;SDS011;11200;51.488;6.668;2023-04-03T06:50:54;3.97;;;2.20;;
22070;SDS011;11200;51.488;6.668;2023-04-03T06:53:20;5.28;;;2.25;;
22070;SDS011;11200;51.488;6.668;2023-04-03T06:55:47;5.25;;;2.40;;
22070;SDS011;11200;51.488;6.668;2023-04-03T06:58:14;5.10;;;2.35;;
22070;SDS011;11200;51.488;6.668;2023-04-03T07:00:42;6.03;;;2.20;;
22070;SDS011;11200;51.488;6.668;2023-04-03T07:03:07;4.75;;;2.22;;
22070;SDS011;11200;51.488;6.668;2023-04-03T07:05:33;6.35;;;2.22;;
22070;SDS011;11200;51.488;6.668;2023-04-03T07:07:59;4.40;;;2.22;;
22070;SDS011;11200;51.488;6.668;2023-04-03T07:10:24;6.60;;;2.45;;
22070;SDS011;11200;51.488;6.668;2023-04-03T07:12:50;3.30;;;2.28;;
22070;SDS011;11200;51.488;6.668;2023-04-03T07:15:16;3.28;;;1.77;;
22070;SDS011;11200;51.488;6.668;2023-04-03T07:17:43;4.25;;;2.00;;
22070;SDS011;11200;51.488;6.668;2023-04-03T07:20:10;4.88;;;2.30;;
22070;SDS011;11200;51.488;6.668;2023-04-03T07:22:36;5.50;;;2.17;;
22070;SDS011;11200;51.488;6.668;2023-04-03T07:25:02;4.85;;;2.30;;
22070;SDS011;11200;51.488;6.668;2023-04-03T07:27:28;5.82;;;2.50;;
22070;SDS011;11200;51.488;6.668;2023-04-03T07:29:54;5.40;;;2.30;;
22070;SDS011;11200;51.488;6.668;2023-04-03T07:32:21;7.15;;;2.30;;
22070;SDS011;11200;51.488;6.668;2023-04-03T07:34:47;3.25;;;1.85;;
22070;SDS011;11200;51.488;6.668;2023-04-03T07:37:12;4.85;;;2.03;;
22070;SDS011;11200;51.488;6.668;2023-04-03T07:39:38;4.78;;;2.42;;
22070;SDS011;11200;51.488;6.668;2023-04-03T07:42:03;6.07;;;2.42;;
22070;SDS011;11200;51.488;6.668;2023-04-03T07:44:29;3.97;;;2.30;;
22070;SDS011;11200;51.488;6.668;2023-04-03T07:46:55;4.05;;;2.13;;
22070;SDS011;11200;51.488;6.668;2023-04-03T07:49:21;4.20;;;2.30;;
22070;SDS011;11200;51.488;6.668;2023-04-03T07:51:49;3.70;;;2.30;;
22070;SDS011;11200;51.488;6.668;2023-04-03T07:54:15;5.18;;;2.63;;
22070;SDS011;11200;51.488;6.668;2023-04-03T07:56:41;3.90;;;2.13;;
22070;SDS011;11200;51.488;6.668;2023-04-03T07:59:08;5.82;;;2.10;;
22070;SDS011;11200;51.488;6.668;2023-04-03T08:01:35;4.75;;;2.20;;
22070;SDS011;11200;51.488;6.668;2023-04-03T08:04:00;3.55;;;2.10;;
22070;SDS011;11200;51.488;6.668;2023-04-03T08:06:26;6.00;;;2.50;;
22070;SDS011;11200;51.488;6.668;2023-04-03T08:08:54;2.85;;;1.85;;
22070;SDS011;11200;51.488;6.668;2023-04-03T08:11:19;3.28;;;2.17;;
22070;SDS011;11200;51.488;6.668;2023-04-03T08:13:46;5.32;;;2.17;;
22070;SDS011;11200;51.488;6.668;2023-04-03T08:16:12;6.45;;;2.47;;
22070;SDS011;11200;51.488;6.668;2023-04-03T08:18:42;3.85;;;1.80;;
22070;SDS011;11200;51.488;6.668;2023-04-03T08:21:10;4.43;;;2.30;;
22070;SDS011;11200;51.488;6.668;2023-04-03T08:23:36;5.00;;;2.22;;
22070;SDS011;11200;51.488;6.668;2023-04-03T08:26:13;4.03;;;2.17;;
22070;SDS011;11200;51.488;6.668;2023-04-03T08:28:40;6.20;;;2.30;;
22070;SDS011;11200;51.488;6.668;2023-04-03T08:31:08;4.28;;;2.20;;
22070;SDS011;11200;51.488;6.668;2023-04-03T08:33:38;4.43;;;2.15;;
22070;SDS011;11200;51.488;6.668;2023-04-03T08:36:15;3.33;;;2.08;;
22070;SDS011;11200;51.488;6.668;2023-04-03T08:38:51;3.42;;;1.70;;
22070;SDS011;11200;51.488;6.668;2023-04-03T08:49:21;2.75;;;1.88;;
22070;SDS011;11200;51.488;6.668;2023-04-03T08:51:48;4.65;;;2.20;;
22070;SDS011;11200;51.488;6.668;2023-04-03T08:54:24;3.42;;;1.90;;
22070;SDS011;11200;51.488;6.668;2023-04-03T08:56:56;3.22;;;1.85;;
22070;SDS011;11200;51.488;6.668;2023-04-03T08:59:26;2.80;;;1.90;;
22070;SDS011;11200;51.488;6.668;2023-04-03T09:01:56;3.40;;;2.08;;
22070;SDS011;11200;51.488;6.668;2023-04-03T09:04:27;3.97;;;2.13;;
22070;SDS011;11200;51.488;6.668;2023-04-03T09:06:58;4.00;;;2.15;;
22070;SDS011;11200;51.488;6.668;2023-04-03T09:09:36;4.80;;;1.98;;
22070;SDS011;11200;51.488;6.668;2023-04-03T09:22:55;2.20;;;1.45;;
22070;SDS011;11200;51.488;6.668;2023-04-03T09:25:25;3.65;;;1.85;;
22070;SDS011;11200;51.488;6.668;2023-04-03T09:28:02;2.83;;;1.50;;
22070;SDS011;11200;51.488;6.668;2023-04-03T09:30:34;2.42;;;1.38;;
22070;SDS011;11200;51.488;6.668;2023-04-03T09:33:00;3.45;;;1.75;;
22070;SDS011;11200;51.488;6.668;2023-04-03T09:35:27;3.17;;;1.50;;
22070;SDS011;11200;51.488;6.668;2023-04-03T09:40:42;2.00;;;1.38;;
22070;SDS011;11200;51.488;6.668;2023-04-03T09:43:19;4.93;;;1.90;;
22070;SDS011;11200;51.488;6.668;2023-04-03T09:45:50;3.13;;;1.65;;
22070;SDS011;11200;51.488;6.668;2023-04-03T09:48:18;2.78;;;1.48;;
22070;SDS011;11200;51.488;6.668;2023-04-03T09:50:54;3.45;;;1.70;;
22070;SDS011;11200;51.488;6.668;2023-04-03T09:53:29;3.22;;;1.25;;
22070;SDS011;11200;51.488;6.668;2023-04-03T09:55:55;2.42;;;1.50;;
22070;SDS011;11200;51.488;6.668;2023-04-03T09:58:28;3.45;;;1.50;;
22070;SDS011;11200;51.488;6.668;2023-04-03T10:01:01;2.28;;;1.63;;
22070;SDS011;11200;51.488;6.668;2023-04-03T16:07:32;2.25;;;1.45;;
22070;SDS011;11200;51.488;6.668;2023-04-03T16:09:59;1.90;;;1.27;;
22070;SDS011;11200;51.488;6.668;2023-04-03T16:12:25;2.80;;;1.58;;
22070;SDS011;11200;51.488;6.668;2023-04-03T16:14:50;2.55;;;1.38;;
22070;SDS011;11200;51.488;6.668;2023-04-03T16:17:16;2.13;;;1.25;;
22070;SDS011;11200;51.488;6.668;2023-04-03T16:19:42;3.45;;;1.42;;
22070;SDS011;11200;51.488;6.668;2023-04-03T16:22:08;3.17;;;1.40;;
22070;SDS011;11200;51.488;6.668;2023-04-03T16:24:33;1.90;;;1.10;;
22070;SDS011;11200;51.488;6.668;2023-04-03T16:27:00;2.70;;;1.40;;
22070;SDS011;11200;51.488;6.668;2023-04-03T16:29:26;3.55;;;1.38;;
22070;SDS011;11200;51.488;6.668;2023-04-03T16:31:51;3.83;;;1.42;;
22070;SDS011;11200;51.488;6.668;2023-04-03T16:34:17;2.47;;;1.30;;
22070;SDS011;11200;51.488;6.668;2023-04-03T16:36:43;2.70;;;1.30;;
22070;SDS011;11200;51.488;6.668;2023-04-03T16:39:08;1.92;;;1.17;;
22070;SDS011;11200;51.488;6.668;2023-04-03T16:41:37;2.80;;;1.33;;
22070;SDS011;11200;51.488;6.668;2023-04-03T16:44:03;2.38;;;1.15;;
22070;SDS011;11200;51.488;6.668;2023-04-03T16:46:28;1.98;;;1.30;;
22070;SDS011;11200;51.488;6.668;2023-04-03T16:48:55;2.97;;;1.52;;
22070;SDS011;11200;51.488;6.668;2023-04-03T16:51:21;1.95;;;1.15;;
22070;SDS011;11200;51.488;6.668;2023-04-03T16:53:47;1.50;;;1.10;;
22070;SDS011;11200;51.488;6.668;2023-04-03T16:56:13;2.65;;;1.40;;
22070;SDS011;11200;51.488;6.668;2023-04-03T16:58:39;2.13;;;1.58;;
22070;SDS011;11200;51.488;6.668;2023-04-03T17:01:17;3.10;;;1.35;;
22070;SDS011;11200;51.488;6.668;2023-04-03T17:03:44;2.72;;;1.27;;
22070;SDS011;11200;51.488;6.668;2023-04-03T17:06:11;2.25;;;1.38;;
22070;SDS011;11200;51.488;6.668;2023-04-03T17:08:44;2.97;;;1.30;;
22070;SDS011;11200;51.488;6.668;2023-04-03T17:11:12;3.42;;;1.48;;
22070;SDS011;11200;51.488;6.668;2023-04-03T17:13:38;2.15;;;1.40;;
22070;SDS011;11200;51.488;6.668;2023-04-03T17:16:04;1.95;;;1.30;;
22070;SDS011;11200;51.488;6.668;2023-04-03T17:18:32;2.53;;;1.40;;
22070;SDS011;11200;51.488;6.668;2023-04-03T17:20:59;1.70;;;1.20;;
22070;SDS011;11200;51.488;6.668;2023-04-03T17:23:26;2.05;;;1.40;;
22070;SDS011;11200;51.488;6.668;2023-04-03T17:25:55;3.42;;;1.33;;
22070;SDS011;11200;51.488;6.668;2023-04-03T17:28:21;3.17;;;1.55;;
22070;SDS011;11200;51.488;6.668;2023-04-03T17:30:56;2.63;;;1.20;;
22070;SDS011;11200;51.488;6.668;2023-04-03T17:33:25;1.88;;;1.20;;
22070;SDS011;11200;51.488;6.668;2023-04-03T17:35:52;3.15;;;1.40;;
22070;SDS011;11200;51.488;6.668;2023-04-03T17:38:21;3.05;;;1.20;;
22070;SDS011;11200;51.488;6.668;2023-04-03T17:40:47;3.15;;;1.45;;
22070;SDS011;11200;51.488;6.668;2023-04-03T17:43:12;3.08;;;1.25;;
22070;SDS011;11200;51.488;6.668;2023-04-03T17:45:38;2.33;;;1.23;;
22070;SDS011;11200;51.488;6.668;2023-04-03T17:48:04;3.80;;;1.30;;
22070;SDS011;11200;51.488;6.668;2023-04-03T17:50:32;1.70;;;1.20;;
22070;SDS011;11200;51.488;6.668;2023-04-03T17:52:57;2.60;;;1.40;;
22070;SDS011;11200;51.488;6.668;2023-04-03T17:55:23;2.75;;;1.58;;
22070;SDS011;11200;51.488;6.668;2023-04-03T17:57:50;2.83;;;1.50;;
22070;SDS011;11200;51.488;6.668;2023-04-03T18:00:16;2.30;;;1.33;;
22070;SDS011;11200;51.488;6.668;2023-04-03T18:02:42;3.30;;;1.50;;
22070;SDS011;11200;51.488;6.668;2023-04-03T18:05:08;1.75;;;1.25;;
22070;SDS011;11200;51.488;6.668;2023-04-03T18:07:37;3.47;;;1.50;;
22070;SDS011;11200;51.488;6.668;2023-04-03T18:10:04;1.73;;;1.30;;
22070;SDS011;11200;51.488;6.668;2023-04-03T18:12:33;2.13;;;1.38;;
22070;SDS011;11200;51.488;6.668;2023-04-03T18:15:00;2.83;;;1.50;;
22070;SDS011;11200;51.488;6.668;2023-04-03T18:17:27;2.22;;;1.55;;
22070;SDS011;11200;51.488;6.668;2023-04-03T18:19:53;2.60;;;1.63;;
22070;SDS011;11200;51.488;6.668;2023-04-03T18:22:19;3.63;;;1.50;;
22070;SDS011;11200;51.488;6.668;2023-04-03T18:24:50;2.08;;;1.40;;
22070;SDS011;11200;51.488;6.668;2023-04-03T18:27:18;2.53;;;1.50;;
22070;SDS011;11200;51.488;6.668;2023-04-03T18:29:50;2.63;;;1.52;;
22070;SDS011;11200;51.488;6.668;2023-04-03T18:32:19;3.35;;;1.55;;
22070;SDS011;11200;51.488;6.668;2023-04-03T18:34:45;2.20;;;1.25;;
22070;SDS011;11200;51.488;6.668;2023-04-03T18:37:11;2.53;;;1.40;;
22070;SDS011;11200;51.488;6.668;2023-04-03T18:39:36;2.45;;;1.48;;
22070;SDS011;11200;51.488;6.668;2023-04-03T18:42:03;1.60;;;1.30;;
22070;SDS011;11200;51.488;6.668;2023-04-03T18:44:35;4.40;;;1.33;;
22070;SDS011;11200;51.488;6.668;2023-04-03T18:47:02;3.00;;;1.48;;
22070;SDS011;11200;51.488;6.668;2023-04-03T18:49:28;2.05;;;1.38;;
22070;SDS011;11200;51.488;6.668;2023-04-03T18:51:55;2.30;;;1.40;;
22070;SDS011;11200;51.488;6.668;2023-04-03T18:54:20;1.98;;;1.27;;
22070;SDS011;11200;51.488;6.668;2023-04-03T18:56:46;2.40;;;1.45;;
22070;SDS011;11200;51.488;6.668;2023-04-03T18:59:12;2.88;;;1.65;;
22070;SDS011;11200;51.488;6.668;2023-04-03T19:01:38;2.53;;;1.50;;
22070;SDS011;11200;51.488;6.668;2023-04-03T19:04:04;3.25;;;1.50;;
22070;SDS011;11200;51.488;6.668;2023-04-03T19:06:31;2.03;;;1.27;;
22070;SDS011;11200;51.488;6.668;2023-04-03T19:08:58;2.88;;;1.40;;
22070;SDS011;11200;51.488;6.668;2023-04-03T19:11:24;1.95;;;1.30;;
22070;SDS011;11200;51.488;6.668;2023-04-03T19:13:51;2.10;;;1.30;;
22070;SDS011;11200;51.488;6.668;2023-04-03T19:16:17;2.00;;;1.40;;
22070;SDS011;11200;51.488;6.668;2023-04-03T19:18:42;1.92;;;1.35;;
22070;SDS011;11200;51.488;6.668;2023-04-03T19:21:08;2.08;;;1.42;;
22070;SDS011;11200;51.488;6.668;2023-04-03T19:23:34;2.25;;;1.70;;
22070;SDS011;11200;51.488;6.668;2023-04-03T19:26:01;3.15;;;1.40;;
22070;SDS011;11200;51.488;6.668;2023-04-03T19:28:28;3.53;;;1.67;;
22070;SDS011;11200;51.488;6.668;2023-04-03T19:30:54;3.92;;;1.60;;
22070;SDS011;11200;51.488;6.668;2023-04-03T19:33:21;2.67;;;1.50;;
22070;SDS011;11200;51.488;6.668;2023-04-03T19:35:48;3.65;;;1.60;;
22070;SDS011;11200;51.488;6.668;2023-04-03T19:38:14;2.83;;;1.40;;
22070;SDS011;11200;51.488;6.668;2023-04-03T19:40:40;2.65;;;1.60;;
22070;SDS011;11200;51.488;6.668;2023-04-03T19:43:09;1.83;;;1.25;;
22070;SDS011;11200;51.488;6.668;2023-04-03T19:45:38;2.65;;;1.52;;
22070;SDS011;11200;51.488;6.668;2023-04-03T19:48:05;2.05;;;1.30;;
22070;SDS011;11200;51.488;6.668;2023-04-03T19:50:32;1.90;;;1.27;;
22070;SDS011;11200;51.488;6.668;2023-04-03T19:52:58;3.47;;;1.60;;
22070;SDS011;11200;51.488;6.668;2023-04-03T19:55:25;2.35;;;1.67;;
22070;SDS011;11200;51.488;6.668;2023-04-03T19:57:56;3.38;;;1.73;;
22070;SDS011;11200;51.488;6.668;2023-04-03T20:00:23;3.65;;;1.70;;
22070;SDS011;11200;51.488;6.668;2023-04-03T20:02:48;2.22;;;1.60;;
22070;SDS011;11200;51.488;6.668;2023-04-03T20:05:14;2.00;;;1.42;;
22070;SDS011;11200;51.488;6.668;2023-04-03T20:07:40;1.92;;;1.38;;
22070;SDS011;11200;51.488;6.668;2023-04-03T20:10:06;3.55;;;1.67;;
22070;SDS011;11200;51.488;6.668;2023-04-03T20:12:31;3.08;;;1.70;;
22070;SDS011;11200;51.488;6.668;2023-04-03T20:14:59;3.42;;;1.88;;
22070;SDS011;11200;51.488;6.668;2023-04-03T20:17:25;2.65;;;1.70;;
22070;SDS011;11200;51.488;6.668;2023-04-03T20:19:51;3.15;;;1.70;;
22070;SDS011;11200;51.488;6.668;2023-04-03T20:22:17;3.40;;;1.88;;
22070;SDS011;11200;51.488;6.668;2023-04-03T20:24:42;4.63;;;2.00;;
22070;SDS011;11200;51.488;6.668;2023-04-03T20:27:08;5.97;;;1.90;;
22070;SDS011;11200;51.488;6.668;2023-04-03T20:29:34;2.97;;;1.92;;
22070;SDS011;11200;51.488;6.668;2023-04-03T20:32:00;4.55;;;2.03;;
22070;SDS011;11200;51.488;6.668;2023-04-03T20:34:26;4.75;;;2.22;;
22070;SDS011;11200;51.488;6.668;2023-04-03T20:36:52;3.65;;;2.05;;
22070;SDS011;11200;51.488;6.668;2023-04-03T20:39:18;5.30;;;2.10;;
22070;SDS011;11200;51.488;6.668;2023-04-03T20:41:47;5.32;;;2.58;;
22070;SDS011;11200;51.488;6.668;2023-04-03T20:44:14;5.75;;;2.60;;
22070;SDS011;11200;51.488;6.668;2023-04-03T20:46:43;4.13;;;2.45;;
22070;SDS011;11200;51.488;6.668;2023-04-03T20:49:10;4.07;;;2.35;;
22070;SDS011;11200;51.488;6.668;2023-04-03T20:51:36;4.55;;;2.45;;
22070;SDS011;11200;51.488;6.668;2023-04-03T20:54:02;4.25;;;2.33;;
22070;SDS011;11200;51.488;6.668;2023-04-03T20:56:29;4.50;;;2.28;;
22070;SDS011;11200;51.488;6.668;2023-04-03T20:58:57;5.35;;;2.25;;
22070;SDS011;11200;51.488;6.668;2023-04-03T21:01:25;5.20;;;2.50;;
22070;SDS011;11200;51.488;6.668;2023-04-03T21:03:54;4.28;;;2.35;;
22070;SDS011;11200;51.488;6.668;2023-04-03T21:20:39;4.35;;;1.98;;
22070;SDS011;11200;51.488;6.668;2023-04-03T21:23:05;4.82;;;2.40;;
22070;SDS011;11200;51.488;6.668;2023-04-03T21:25:31;5.45;;;2.08;;
22070;SDS011;11200;51.488;6.668;2023-04-03T21:27:57;4.38;;;2.45;;
22070;SDS011;11200;51.488;6.668;2023-04-03T21:30:23;4.63;;;2.50;;
22070;SDS011;11200;51.488;6.668;2023-04-03T21:32:50;4.18;;;2.35;;
22070;SDS011;11200;51.488;6.668;2023-04-03T21:35:15;5.43;;;2.63;;
22070;SDS011;11200;51.488;6.668;2023-04-03T21:37:41;3.70;;;2.15;;
22070;SDS011;11200;51.488;6.668;2023-04-03T21:40:06;4.78;;;2.33;;
22070;SDS011;11200;51.488;6.668;2023-04-03T21:42:32;6.90;;;2.70;;
22070;SDS011;11200;51.488;6.668;2023-04-03T21:44:58;5.03;;;2.30;;
22070;SDS011;11200;51.488;6.668;2023-04-03T21:47:24;5.35;;;2.60;;
22070;SDS011;11200;51.488;6.668;2023-04-03T21:49:49;5.25;;;2.47;;
22070;SDS011;11200;51.488;6.668;2023-04-03T21:52:15;5.68;;;2.58;;
22070;SDS011;11200;51.488;6.668;2023-04-03T21:54:41;5.90;;;2.95;;
22070;SDS011;11200;51.488;6.668;2023-04-03T21:57:07;4.88;;;2.05;;
22070;SDS011;11200;51.488;6.668;2023-04-03T21:59:35;5.15;;;2.80;;
22070;SDS011;11200;51.488;6.668;2023-04-03T22:02:02;6.63;;;2.80;;
22070;SDS011;11200;51.488;6.668;2023-04-03T22:04:28;3.58;;;2.25;;
22070;SDS011;11200;51.488;6.668;2023-04-03T22:06:56;4.20;;;2.15;;
22070;SDS011;11200;51.488;6.668;2023-04-03T22:09:22;5.13;;;2.65;;
22070;SDS011;11200;51.488;6.668;2023-04-03T22:11:48;4.57;;;2.20;;
22070;SDS011;11200;51.488;6.668;2023-04-03T22:14:14;5.60;;;2.38;;
